Time;durP1;ratioP1;P1;durP2;ratioP2;P2;SDS_P1;SDS_P2;PMS_P1;PMS_P2;Temp;Humidity;BMP_temperature;BMP_pressure;BME280_temperature;BME280_humidity;BME280_pressure;Samples;Min_cycle;Max_cycle;Signal;HPM_P1;HPM_P2
2022/05/02 00:01:24;;;;;;;15.05;9.93;;;16.30;99.90;;;;;;5048882;28;20201;-77
2022/05/02 00:03:51;;;;;;;12.68;8.63;;;16.20;99.90;;;;;;5037095;28;20072;-76
2022/05/02 00:06:19;;;;;;;15.55;10.63;;;16.10;99.90;;;;;;5094661;28;20551;-76
2022/05/02 00:08:47;;;;;;;11.52;8.55;;;16.10;99.90;;;;;;5070519;28;20102;-76
2022/05/02 00:11:14;;;;;;;14.88;9.57;;;16.00;99.90;;;;;;5074470;28;20402;-76
2022/05/02 00:13:41;;;;;;;16.17;9.70;;;16.10;99.90;;;;;;5068517;28;20045;-76
2022/05/02 00:16:09;;;;;;;14.18;9.23;;;16.20;99.90;;;;;;5065611;28;20048;-76
2022/05/02 00:18:37;;;;;;;13.90;10.30;;;16.20;99.90;;;;;;5063577;28;20063;-75
2022/05/02 00:21:04;;;;;;;12.15;8.77;;;16.30;99.90;;;;;;5062065;28;20116;-76
2022/05/02 00:23:32;;;;;;;20.15;9.13;;;16.30;99.90;;;;;;5053294;28;20499;-75
2022/05/02 00:26:00;;;;;;;13.15;9.52;;;16.40;99.90;;;;;;5063528;28;20045;-75
2022/05/02 00:28:27;;;;;;;11.82;9.45;;;16.50;99.90;;;;;;5074357;28;20063;-76
2022/05/02 00:30:55;;;;;;;12.63;8.98;;;16.50;99.90;;;;;;5059706;28;20132;-76
2022/05/02 00:33:22;;;;;;;15.48;9.80;;;16.50;99.90;;;;;;5080634;28;20917;-76
2022/05/02 00:35:50;;;;;;;11.20;9.07;;;16.50;99.90;;;;;;5059257;28;20076;-76
2022/05/02 00:38:17;;;;;;;13.10;9.32;;;16.50;99.90;;;;;;5070573;28;20039;-75
2022/05/02 00:40:45;;;;;;;17.70;10.68;;;16.50;99.90;;;;;;5056618;28;20087;-75
2022/05/02 00:43:13;;;;;;;16.27;8.90;;;16.60;99.90;;;;;;5061596;28;20569;-76
2022/05/02 00:45:40;;;;;;;13.55;9.75;;;16.60;99.90;;;;;;5079171;28;20052;-76
2022/05/02 00:48:08;;;;;;;11.57;8.10;;;16.60;99.90;;;;;;5057051;28;20128;-76
2022/05/02 00:50:40;;;;;;;14.20;8.75;;;16.50;99.90;;;;;;5061786;28;20077;-75
2022/05/02 00:53:13;;;;;;;12.27;8.77;;;16.50;99.90;;;;;;5058019;28;20464;-75
2022/05/02 00:55:41;;;;;;;12.18;9.10;;;16.50;99.90;;;;;;5039470;28;20124;-76
2022/05/02 00:58:09;;;;;;;13.05;9.20;;;16.50;99.90;;;;;;5061169;28;20051;-76
2022/05/02 01:00:39;;;;;;;12.95;9.32;;;16.50;99.90;;;;;;5041822;28;20102;-76
2022/05/02 01:03:08;;;;;;;15.65;9.20;;;16.50;99.90;;;;;;5061170;28;20496;-76
2022/05/02 01:07:08;;;;;;;16.08;9.18;;;16.50;99.90;;;;;;5076215;28;20055;-76
2022/05/02 01:08:28;;;;;;;14.70;9.48;;;16.60;99.90;;;;;;5058348;28;20055;-75
2022/05/02 01:11:01;;;;;;;14.15;10.13;;;16.60;99.90;;;;;;5068346;28;20502;-77
2022/05/02 01:13:37;;;;;;;17.40;9.75;;;16.60;99.90;;;;;;5039189;28;20094;-76
2022/05/02 01:16:12;;;;;;;12.05;8.93;;;16.60;99.90;;;;;;5050047;28;20051;-75
2022/05/02 01:18:41;;;;;;;13.02;8.70;;;16.50;99.90;;;;;;5068672;28;20044;-75
2022/05/02 01:21:14;;;;;;;14.90;9.15;;;16.50;99.90;;;;;;5082412;28;20166;-75
2022/05/02 01:23:44;;;;;;;16.13;9.30;;;16.50;99.90;;;;;;5085401;28;20115;-75
2022/05/02 01:26:12;;;;;;;13.48;9.15;;;16.50;99.90;;;;;;5061904;28;20045;-75
2022/05/02 01:28:41;;;;;;;13.98;9.88;;;16.60;99.90;;;;;;5050962;28;20053;-76
2022/05/02 01:31:09;;;;;;;13.02;9.30;;;16.60;99.90;;;;;;5058252;28;20113;-76
2022/05/02 01:33:37;;;;;;;16.20;11.07;;;16.60;99.90;;;;;;5041977;28;20620;-76
2022/05/02 01:36:05;;;;;;;13.63;9.43;;;16.60;99.90;;;;;;5067942;28;20442;-76
2022/05/02 01:38:34;;;;;;;13.98;9.15;;;16.60;99.90;;;;;;5044624;28;20052;-76
2022/05/02 01:41:06;;;;;;;15.25;9.75;;;16.60;99.90;;;;;;5061874;28;20076;-77
2022/05/02 01:43:34;;;;;;;14.88;10.52;;;16.60;99.90;;;;;;5052569;28;20053;-77
2022/05/02 01:46:05;;;;;;;16.02;11.20;;;16.60;99.90;;;;;;5050700;28;20055;-76
2022/05/02 01:48:33;;;;;;;15.77;10.52;;;16.60;99.90;;;;;;5039134;28;20041;-76
2022/05/02 01:51:01;;;;;;;15.07;9.95;;;16.60;99.90;;;;;;5044206;28;20060;-76
2022/05/02 01:53:30;;;;;;;15.57;9.13;;;16.60;99.90;;;;;;5035368;28;20123;-75
2022/05/02 01:55:58;;;;;;;17.70;10.95;;;16.60;99.90;;;;;;5033974;28;20065;-77
2022/05/02 01:58:26;;;;;;;14.73;9.50;;;16.60;99.90;;;;;;5069687;28;20040;-77
2022/05/02 02:00:55;;;;;;;14.75;10.00;;;16.60;99.90;;;;;;5085824;28;20416;-77
2022/05/02 02:03:24;;;;;;;13.23;9.18;;;16.60;99.90;;;;;;5070496;28;20044;-78
2022/05/02 02:05:53;;;;;;;15.52;10.20;;;16.60;99.90;;;;;;5070299;28;20489;-77
2022/05/02 02:08:29;;;;;;;16.17;9.52;;;16.60;99.90;;;;;;5071030;28;20135;-77
2022/05/02 02:11:04;;;;;;;13.50;9.20;;;16.60;99.90;;;;;;5047297;28;20052;-76
2022/05/02 02:13:36;;;;;;;17.25;9.70;;;16.60;99.90;;;;;;5071337;28;20044;-76
2022/05/02 02:16:07;;;;;;;13.02;9.27;;;16.60;99.90;;;;;;5084445;28;20036;-77
2022/05/02 02:18:41;;;;;;;15.93;9.10;;;16.50;99.90;;;;;;5054493;28;20457;-76
2022/05/02 02:21:11;;;;;;;15.32;9.57;;;16.50;99.90;;;;;;5068188;28;20162;-77
2022/05/02 02:23:42;;;;;;;14.63;9.38;;;16.50;99.90;;;;;;5056243;28;20075;-76
2022/05/02 02:26:09;;;;;;;13.38;9.00;;;16.60;99.90;;;;;;5048939;28;20044;-76
2022/05/02 02:28:38;;;;;;;12.55;8.32;;;16.60;99.90;;;;;;5032859;28;20059;-76
2022/05/02 02:31:06;;;;;;;9.82;8.00;;;16.60;99.90;;;;;;5049638;28;20045;-76
2022/05/02 02:33:34;;;;;;;12.35;8.35;;;16.60;99.90;;;;;;5032319;28;20392;-76
2022/05/02 02:36:02;;;;;;;12.40;7.90;;;16.50;99.90;;;;;;5031593;28;20084;-76
2022/05/02 02:38:29;;;;;;;11.57;8.00;;;16.50;99.90;;;;;;5032395;28;20040;-75
2022/05/02 02:40:57;;;;;;;12.60;7.45;;;16.50;99.90;;;;;;5034616;28;20133;-76
2022/05/02 02:43:25;;;;;;;9.50;7.00;;;16.50;99.90;;;;;;5051784;28;20048;-76
2022/05/02 02:45:52;;;;;;;12.73;8.25;;;16.50;99.90;;;;;;5068956;28;20071;-76
2022/05/02 02:48:20;;;;;;;11.18;8.25;;;16.50;99.90;;;;;;5069864;28;20132;-76
2022/05/02 02:50:47;;;;;;;12.93;8.80;;;16.60;99.90;;;;;;5070198;28;20048;-76
2022/05/02 02:53:15;;;;;;;13.20;8.57;;;16.60;99.90;;;;;;5069663;28;20499;-76
2022/05/02 02:55:42;;;;;;;13.32;8.73;;;16.60;99.90;;;;;;5053225;28;20126;-76
2022/05/02 02:58:10;;;;;;;12.45;8.73;;;16.60;99.90;;;;;;5069833;28;20044;-76
2022/05/02 03:00:37;;;;;;;13.65;8.45;;;16.60;99.90;;;;;;5051439;28;20053;-76
2022/05/02 03:03:05;;;;;;;11.65;8.77;;;16.60;99.90;;;;;;5065707;28;20064;-76
2022/05/02 03:08:22;;;;;;;12.52;8.75;;;16.60;99.90;;;;;;5069934;28;20129;-75
2022/05/02 03:10:51;;;;;;;10.20;7.88;;;16.60;99.90;;;;;;5053099;28;20045;-76
2022/05/02 03:13:19;;;;;;;14.43;9.10;;;16.60;99.90;;;;;;5053283;28;20660;-76
2022/05/02 03:15:47;;;;;;;16.10;9.82;;;16.60;99.90;;;;;;5053077;28;20048;-76
2022/05/02 03:18:15;;;;;;;15.60;9.70;;;16.60;99.90;;;;;;5053344;28;20048;-76
2022/05/02 03:20:42;;;;;;;10.43;7.97;;;16.60;99.90;;;;;;5069098;28;20159;-76
2022/05/02 03:23:10;;;;;;;14.07;9.85;;;16.70;99.90;;;;;;5070470;28;20187;-76
2022/05/02 03:25:38;;;;;;;12.38;8.35;;;16.70;99.90;;;;;;5069042;28;20062;-76
2022/05/02 03:28:05;;;;;;;14.40;8.75;;;16.70;99.90;;;;;;5053107;28;20414;-76
2022/05/02 03:30:33;;;;;;;16.23;9.95;;;16.70;99.90;;;;;;5050995;28;20065;-76
2022/05/02 03:33:01;;;;;;;12.65;9.32;;;16.70;99.90;;;;;;5036231;28;20484;-76
2022/05/02 03:35:29;;;;;;;15.43;9.63;;;16.70;99.90;;;;;;5036252;28;20047;-76
2022/05/02 03:37:57;;;;;;;13.90;9.60;;;16.70;99.90;;;;;;5052297;28;20044;-76
2022/05/02 03:40:25;;;;;;;15.48;10.32;;;16.70;99.90;;;;;;5069214;28;20506;-76
2022/05/02 03:42:52;;;;;;;19.00;10.68;;;16.60;99.90;;;;;;5053030;28;20055;-76
2022/05/02 03:45:20;;;;;;;14.80;10.00;;;16.60;99.90;;;;;;5052186;28;20052;-76
2022/05/02 03:47:47;;;;;;;16.08;10.13;;;16.60;99.90;;;;;;5052505;28;20075;-76
2022/05/02 03:50:15;;;;;;;15.20;9.88;;;16.60;99.90;;;;;;5069202;28;20116;-76
2022/05/02 03:52:43;;;;;;;17.88;9.93;;;16.50;99.90;;;;;;5069407;28;20937;-76
2022/05/02 03:55:11;;;;;;;15.23;9.85;;;16.50;99.90;;;;;;5068796;28;20048;-76
2022/05/02 03:57:39;;;;;;;13.43;9.63;;;16.60;99.90;;;;;;5052476;28;20044;-76
2022/05/02 04:00:07;;;;;;;14.32;8.75;;;16.60;99.90;;;;;;5069034;28;20060;-76
2022/05/02 04:02:41;;;;;;;20.63;10.07;;;16.60;99.90;;;;;;5052880;28;20101;-76
2022/05/02 04:05:09;;;;;;;11.77;8.93;;;16.60;99.90;;;;;;5068545;28;20045;-76
2022/05/02 04:07:37;;;;;;;15.40;10.00;;;16.60;99.90;;;;;;5052128;28;20106;-76
2022/05/02 04:10:06;;;;;;;14.40;9.13;;;16.60;99.90;;;;;;5069623;28;20068;-76
2022/05/02 04:12:38;;;;;;;11.82;8.88;;;16.60;99.90;;;;;;5035485;28;20048;-76
2022/05/02 04:15:07;;;;;;;12.27;8.57;;;16.60;99.90;;;;;;5068370;28;20139;-76
2022/05/02 04:17:35;;;;;;;11.90;9.00;;;16.60;99.90;;;;;;5051778;28;20052;-76
2022/05/02 04:20:04;;;;;;;11.35;8.65;;;16.70;99.90;;;;;;5052288;28;20053;-76
2022/05/02 04:22:35;;;;;;;12.70;8.40;;;16.70;99.90;;;;;;5069230;28;20041;-76
2022/05/02 04:25:04;;;;;;;13.55;9.15;;;16.70;99.90;;;;;;5068147;28;20066;-76
2022/05/02 04:27:32;;;;;;;15.23;9.75;;;16.70;99.90;;;;;;5052006;28;20049;-76
2022/05/02 04:30:00;;;;;;;14.30;8.90;;;16.80;99.90;;;;;;5051754;28;20486;-76
2022/05/02 04:32:28;;;;;;;11.90;8.38;;;16.80;99.90;;;;;;5052206;28;20048;-76
2022/05/02 04:34:58;;;;;;;11.70;9.02;;;16.70;99.90;;;;;;5052086;28;20497;-75
2022/05/02 04:37:26;;;;;;;17.88;9.07;;;16.80;99.90;;;;;;5068365;28;20052;-76
2022/05/02 04:39:53;;;;;;;12.90;8.63;;;16.70;99.90;;;;;;5045591;28;20129;-76
2022/05/02 04:42:21;;;;;;;12.48;9.07;;;16.70;99.90;;;;;;5059841;28;20040;-76
2022/05/02 04:44:49;;;;;;;14.85;9.13;;;16.70;99.90;;;;;;5053069;28;20049;-76
2022/05/02 04:47:17;;;;;;;12.30;8.82;;;16.80;99.90;;;;;;5064358;28;20106;-77
2022/05/02 04:49:44;;;;;;;12.07;9.07;;;16.90;99.90;;;;;;5043574;28;20043;-75
2022/05/02 04:52:12;;;;;;;12.10;8.88;;;16.90;99.90;;;;;;5078894;28;20102;-76
2022/05/02 04:54:40;;;;;;;12.15;8.20;;;17.00;99.90;;;;;;5060409;28;20049;-76
2022/05/02 04:57:07;;;;;;;14.02;9.02;;;17.00;99.90;;;;;;5054516;28;20206;-76
2022/05/02 04:59:35;;;;;;;14.23;8.75;;;17.00;99.90;;;;;;5046723;28;20053;-75
2022/05/02 05:02:04;;;;;;;9.65;7.75;;;17.00;99.90;;;;;;5034088;28;20505;-75
2022/05/02 05:04:32;;;;;;;15.40;9.20;;;17.00;99.90;;;;;;5036897;28;20045;-75
2022/05/02 05:07:01;;;;;;;16.60;10.27;;;17.00;99.90;;;;;;5034071;28;20053;-76
2022/05/02 05:09:28;;;;;;;13.65;9.00;;;17.00;99.90;;;;;;5037548;28;20123;-76
2022/05/02 05:12:05;;;;;;;12.90;8.23;;;17.10;99.90;;;;;;5070954;28;20051;-76
2022/05/02 05:17:54;;;;;;;13.63;9.20;;;17.10;99.90;;;;;;5034659;28;20059;-75
2022/05/02 05:20:35;;;;;;;14.30;8.77;;;17.10;99.90;;;;;;5042774;28;20049;-77
2022/05/02 05:23:20;;;;;;;13.73;8.70;;;17.20;99.90;;;;;;5033465;28;20048;-77
2022/05/02 05:26:10;;;;;;;15.18;8.18;;;17.10;99.90;;;;;;5050212;28;20033;-75
2022/05/02 05:29:16;;;;;;;12.43;8.82;;;17.20;99.90;;;;;;5050130;28;20083;-74
2022/05/02 05:31:49;;;;;;;11.00;8.80;;;17.20;99.90;;;;;;5050018;28;20065;-75
2022/05/02 05:34:29;;;;;;;12.70;8.95;;;17.30;99.90;;;;;;5068010;28;20048;-75
2022/05/02 05:37:15;;;;;;;11.75;8.85;;;17.30;99.90;;;;;;5054106;28;20053;-75
2022/05/02 05:39:57;;;;;;;12.27;8.73;;;17.30;99.90;;;;;;5054465;28;20068;-75
2022/05/02 05:42:56;;;;;;;14.30;9.15;;;17.40;99.90;;;;;;5054648;28;20377;-75
2022/05/02 05:45:48;;;;;;;17.23;9.35;;;17.40;99.90;;;;;;5071111;28;20121;-75
2022/05/02 05:48:21;;;;;;;12.80;8.18;;;17.40;99.90;;;;;;5054614;28;20049;-75
2022/05/02 05:51:13;;;;;;;13.88;8.88;;;17.50;99.90;;;;;;5070791;28;20037;-75
2022/05/02 05:54:15;;;;;;;15.30;8.20;;;17.60;99.90;;;;;;5053963;28;20060;-75
2022/05/02 05:57:14;;;;;;;13.98;9.15;;;17.90;99.90;;;;;;5054241;28;20211;-74
2022/05/02 06:00:05;;;;;;;12.98;7.57;;;18.30;99.90;;;;;;5043694;28;20040;-75
2022/05/02 06:02:49;;;;;;;10.32;7.30;;;18.70;99.90;;;;;;5070782;28;20049;-75
2022/05/02 06:05:18;;;;;;;11.60;7.30;;;19.10;99.90;;;;;;5051420;28;20511;-75
2022/05/02 06:07:46;;;;;;;8.63;6.07;;;19.40;99.90;;;;;;5053291;28;20055;-75
2022/05/02 06:10:16;;;;;;;9.73;6.57;;;19.60;99.90;;;;;;5069713;28;20120;-75
2022/05/02 06:12:45;;;;;;;10.80;6.97;;;19.70;99.90;;;;;;5069874;28;20098;-75
2022/05/02 06:20:52;;;;;;;11.35;7.78;;;19.80;99.90;;;;;;5070031;28;20116;-74
2022/05/02 06:23:23;;;;;;;21.15;7.05;;;19.70;99.90;;;;;;5070113;28;20157;-75
2022/05/02 06:25:53;;;;;;;11.73;6.88;;;19.60;99.90;;;;;;5053403;28;20045;-75
2022/05/02 06:28:30;;;;;;;10.95;6.88;;;19.50;99.90;;;;;;5053621;28;20071;-75
2022/05/02 06:31:00;;;;;;;10.13;7.15;;;19.50;99.90;;;;;;5053089;28;20049;-74
2022/05/02 06:33:29;;;;;;;12.90;7.25;;;19.70;99.90;;;;;;5053591;28;20502;-74
2022/05/02 06:36:18;;;;;;;12.57;7.60;;;19.80;99.90;;;;;;5069855;28;20105;-74
2022/05/02 06:39:28;;;;;;;8.65;6.75;;;19.80;99.90;;;;;;5070097;28;20040;-74
2022/05/02 06:42:20;;;;;;;11.95;7.80;;;19.80;99.90;;;;;;5071305;28;20048;-74
2022/05/02 06:44:57;;;;;;;10.02;6.57;;;19.90;99.90;;;;;;5070938;28;20044;-74
2022/05/02 06:47:58;;;;;;;12.18;6.95;;;20.10;99.90;;;;;;5052272;28;20139;-74
2022/05/02 06:50:29;;;;;;;12.20;8.02;;;20.10;99.70;;;;;;5053283;28;20481;-74
2022/05/02 06:53:30;;;;;;;13.23;6.78;;;20.30;99.80;;;;;;5068798;28;20104;-74
2022/05/02 06:56:18;;;;;;;8.30;5.85;;;20.50;99.40;;;;;;5053022;28;20105;-74
2022/05/02 06:59:03;;;;;;;9.82;6.55;;;20.70;99.00;;;;;;5061085;28;20051;-74
2022/05/02 07:01:53;;;;;;;8.18;6.25;;;20.90;98.70;;;;;;5049482;28;20055;-75
2022/05/02 07:04:39;;;;;;;11.48;6.00;;;21.10;98.20;;;;;;5032888;28;20045;-75
2022/05/02 07:07:13;;;;;;;7.40;5.60;;;21.20;97.90;;;;;;5031560;28;20076;-75
2022/05/02 07:09:45;;;;;;;10.38;6.30;;;21.20;97.90;;;;;;5049412;28;20162;-74
2022/05/02 07:12:17;;;;;;;11.73;6.00;;;21.30;97.70;;;;;;5049348;28;20407;-74
2022/05/02 07:15:03;;;;;;;15.82;7.05;;;21.20;97.60;;;;;;5033230;28;20407;-75
2022/05/02 07:17:43;;;;;;;9.85;6.20;;;21.20;97.70;;;;;;5032451;28;20052;-74
2022/05/02 07:20:14;;;;;;;11.45;5.35;;;21.00;97.60;;;;;;5032100;28;20126;-74
2022/05/02 07:22:58;;;;;;;13.57;6.90;;;21.00;97.60;;;;;;5016246;28;20053;-74
2022/05/02 07:25:28;;;;;;;12.65;5.65;;;20.80;97.60;;;;;;5049173;28;20131;-74
2022/05/02 07:28:24;;;;;;;10.65;6.32;;;20.70;97.70;;;;;;5050182;28;20053;-74
2022/05/02 07:30:56;;;;;;;13.43;7.07;;;20.60;97.60;;;;;;5009595;28;20045;-74
2022/05/02 07:33:35;;;;;;;9.93;6.43;;;20.60;97.60;;;;;;5032740;28;20295;-74
2022/05/02 07:36:04;;;;;;;9.98;6.32;;;20.70;97.70;;;;;;5032443;28;20057;-74
2022/05/02 07:38:34;;;;;;;7.72;5.72;;;20.90;97.30;;;;;;5033166;28;20103;-74
2022/05/02 07:41:25;;;;;;;8.80;6.70;;;21.20;97.20;;;;;;5016143;28;20114;-74
2022/05/02 07:43:57;;;;;;;11.18;5.25;;;21.60;96.70;;;;;;5048830;28;20049;-74
2022/05/02 07:46:37;;;;;;;10.07;5.15;;;21.90;95.80;;;;;;5049465;28;20647;-74
2022/05/02 07:49:07;;;;;;;14.15;5.40;;;22.20;95.60;;;;;;5031367;28;20052;-74
2022/05/02 07:51:41;;;;;;;9.65;6.57;;;22.40;95.10;;;;;;5048780;28;20049;-74
2022/05/02 07:54:16;;;;;;;8.15;5.10;;;22.40;94.60;;;;;;5050034;28;20102;-74
2022/05/02 07:56:50;;;;;;;9.57;5.95;;;22.30;94.50;;;;;;5061546;28;20074;-75
2022/05/02 07:59:20;;;;;;;8.07;6.00;;;22.00;94.60;;;;;;5034918;28;20165;-75
2022/05/02 08:01:48;;;;;;;10.40;5.70;;;21.70;94.90;;;;;;5068726;28;20052;-75
2022/05/02 08:04:17;;;;;;;7.20;5.53;;;21.50;94.80;;;;;;5068887;28;20048;-74
2022/05/02 08:07:00;;;;;;;7.55;5.05;;;21.20;95.00;;;;;;5070434;28;20048;-74
2022/05/02 08:09:55;;;;;;;7.75;5.18;;;21.00;95.50;;;;;;5052698;28;20049;-74
2022/05/02 08:12:28;;;;;;;7.75;5.82;;;20.60;95.80;;;;;;5068258;28;20543;-74
2022/05/02 08:15:02;;;;;;;10.60;5.47;;;20.30;96.40;;;;;;5068257;28;20143;-75
2022/05/02 08:18:07;;;;;;;9.82;5.47;;;20.10;96.80;;;;;;5037888;28;20052;-75
2022/05/02 08:20:39;;;;;;;10.68;5.65;;;19.70;97.70;;;;;;5073320;28;20036;-75
2022/05/02 08:29:40;;;;;;;12.35;6.32;;;19.30;98.80;;;;;;5055942;28;20052;-73
2022/05/02 08:32:13;;;;;;;9.05;5.40;;;19.30;98.40;;;;;;5056052;28;20262;-74
2022/05/02 08:34:41;;;;;;;13.70;6.07;;;19.40;98.40;;;;;;5056071;28;20052;-73
2022/05/02 08:37:30;;;;;;;8.23;5.80;;;19.60;98.30;;;;;;5055493;28;20057;-74
2022/05/02 08:40:04;;;;;;;14.02;5.93;;;20.10;98.20;;;;;;5055831;28;20113;-74
2022/05/02 08:42:39;;;;;;;23.25;5.82;;;20.30;97.30;;;;;;5054482;28;20047;-74
2022/05/02 08:45:38;;;;;;;11.25;5.18;;;20.30;97.60;;;;;;5055324;28;20052;-74
2022/05/02 08:48:27;;;;;;;11.05;5.95;;;20.30;97.90;;;;;;5055437;28;20056;-74
2022/05/02 08:51:05;;;;;;;8.90;5.95;;;20.30;98.40;;;;;;5072646;28;20088;-74
2022/05/02 08:54:28;;;;;;;12.60;5.63;;;20.10;98.80;;;;;;5039569;28;20163;-75
2022/05/02 08:57:14;;;;;;;8.45;5.32;;;19.90;99.10;;;;;;4996735;28;20414;-74
2022/05/02 09:00:16;;;;;;;7.35;4.97;;;19.70;99.00;;;;;;5072103;28;20127;-74
2022/05/02 09:03:01;;;;;;;14.00;6.20;;;19.40;99.40;;;;;;5057780;28;20111;-75
2022/05/02 09:05:50;;;;;;;7.65;5.20;;;19.30;99.90;;;;;;5072350;28;20110;-74
2022/05/02 09:09:05;;;;;;;8.75;5.85;;;19.10;99.90;;;;;;5072091;28;20094;-74
2022/05/02 09:11:46;;;;;;;12.30;6.20;;;19.00;99.90;;;;;;4978459;28;20053;-75
2022/05/02 09:14:33;;;;;;;6.68;5.20;;;18.90;99.90;;;;;;5067256;28;20131;-74
2022/05/02 09:17:28;;;;;;;8.23;5.45;;;18.80;99.90;;;;;;5055678;28;20114;-74
2022/05/02 09:20:23;;;;;;;7.72;5.70;;;18.70;99.90;;;;;;5072241;28;20079;-74
2022/05/02 09:23:16;;;;;;;8.85;5.32;;;18.60;99.90;;;;;;5071819;28;20043;-75
2022/05/02 09:26:05;;;;;;;8.68;4.88;;;18.60;99.90;;;;;;5071905;28;20145;-74
2022/05/02 09:28:38;;;;;;;7.85;5.00;;;18.60;99.90;;;;;;5054790;28;20474;-75
2022/05/02 09:31:33;;;;;;;10.30;5.68;;;18.60;99.90;;;;;;5055237;28;20044;-75
2022/05/02 09:34:17;;;;;;;6.68;4.05;;;18.40;99.90;;;;;;5055200;28;20052;-74
2022/05/02 09:37:01;;;;;;;8.55;4.50;;;18.30;99.90;;;;;;5071080;28;20048;-75
2022/05/02 09:39:52;;;;;;;5.90;4.03;;;18.20;99.90;;;;;;5054821;28;20522;-74
2022/05/02 09:42:48;;;;;;;7.72;4.88;;;18.20;99.90;;;;;;5051320;28;20053;-75
2022/05/02 09:51:49;;;;;;;7.30;4.43;;;18.20;99.90;;;;;;5051550;28;20056;-72
2022/05/02 09:58:08;;;;;;;9.50;3.78;;;18.10;99.90;;;;;;5050840;28;20049;-75
2022/05/02 10:01:08;;;;;;;5.68;3.25;;;18.30;99.90;;;;;;5052578;28;20060;-75
2022/05/02 10:04:00;;;;;;;9.70;3.65;;;18.40;99.90;;;;;;5034760;28;20053;-74
2022/05/02 10:06:43;;;;;;;37.13;7.53;;;18.40;99.90;;;;;;5013098;28;20057;-75
2022/05/02 10:10:03;;;;;;;6.95;4.18;;;18.50;99.90;;;;;;5050666;28;20115;-76
2022/05/02 10:13:09;;;;;;;8.55;3.85;;;18.60;99.90;;;;;;4981169;28;20041;-76
2022/05/02 10:15:45;;;;;;;7.13;3.78;;;18.70;99.90;;;;;;4997176;28;20061;-76
2022/05/02 10:18:37;;;;;;;7.88;4.10;;;18.80;99.90;;;;;;5042924;28;20503;-76
2022/05/02 10:21:57;;;;;;;6.45;4.00;;;18.80;99.90;;;;;;5032333;28;20464;-77
2022/05/02 10:24:25;;;;;;;6.38;3.42;;;18.80;99.90;;;;;;5046785;28;20053;-77
2022/05/02 10:27:07;;;;;;;6.82;3.35;;;18.90;99.90;;;;;;5033180;28;20122;-77
2022/05/02 10:30:05;;;;;;;5.10;2.97;;;19.00;99.90;;;;;;5034668;28;20434;-76
2022/05/02 10:32:48;;;;;;;6.13;2.85;;;19.10;99.90;;;;;;5069652;28;20106;-77
2022/05/02 10:35:18;;;;;;;3.78;2.45;;;19.10;98.70;;;;;;5069811;28;20484;-77
2022/05/02 10:38:00;;;;;;;5.07;3.40;;;19.30;98.40;;;;;;5036935;28;20148;-77
2022/05/02 10:40:28;;;;;;;5.95;3.10;;;19.70;98.20;;;;;;5035666;28;20688;-77
2022/05/02 10:42:57;;;;;;;10.85;3.63;;;19.90;97.90;;;;;;5053022;28;20143;-77
2022/05/02 10:45:29;;;;;;;4.18;2.50;;;20.10;97.80;;;;;;5052777;28;20398;-77
2022/05/02 10:48:06;;;;;;;5.40;3.05;;;20.10;98.00;;;;;;5070395;28;20059;-78
2022/05/02 10:50:37;;;;;;;5.38;3.10;;;20.00;97.70;;;;;;5053157;28;20076;-78
2022/05/02 10:53:30;;;;;;;5.65;2.35;;;19.80;98.00;;;;;;5070310;28;20067;-77
2022/05/02 10:56:19;;;;;;;4.43;2.75;;;19.80;97.40;;;;;;5069357;28;20040;-78
2022/05/02 10:58:48;;;;;;;6.43;2.42;;;19.80;96.90;;;;;;5053075;28;20135;-76
2022/05/02 11:01:41;;;;;;;3.60;2.50;;;19.90;97.00;;;;;;5051896;28;20098;-77
2022/05/02 11:04:33;;;;;;;7.35;2.80;;;20.00;97.00;;;;;;5028259;28;20110;-76
2022/05/02 11:07:19;;;;;;;5.72;3.22;;;20.10;96.50;;;;;;5068663;28;20044;-76
2022/05/02 11:09:56;;;;;;;4.43;2.30;;;20.50;96.40;;;;;;5069012;28;20494;-79
2022/05/02 11:12:31;;;;;;;6.70;2.33;;;20.60;95.60;;;;;;5069168;28;20577;-76
2022/05/02 11:15:13;;;;;;;3.13;2.20;;;20.70;94.70;;;;;;5052698;28;20043;-76
2022/05/02 11:20:41;;;;;;;3.08;1.50;;;20.80;93.40;;;;;;5069347;28;20087;-76
2022/05/02 11:21:11;;;;;;;3.65;1.52;;;20.90;92.90;;;;;;5068795;28;20036;-77
2022/05/02 11:23:53;;;;;;;4.32;1.70;;;21.10;92.30;;;;;;5051996;28;20052;-77
2022/05/02 11:26:47;;;;;;;2.55;1.77;;;21.10;92.50;;;;;;5036061;28;20063;-76
2022/05/02 11:29:41;;;;;;;2.63;1.40;;;21.20;92.20;;;;;;5067779;28;20037;-75
2022/05/02 11:32:37;;;;;;;3.15;1.40;;;21.40;91.30;;;;;;5024747;28;20147;-77
2022/05/02 11:35:11;;;;;;;1.48;1.00;;;21.40;90.60;;;;;;5031771;28;20055;-76
2022/05/02 11:38:16;;;;;;;5.97;1.08;;;21.40;90.50;;;;;;5050351;28;20045;-76
2022/05/02 11:41:06;;;;;;;3.45;1.30;;;21.40;91.10;;;;;;5048953;28;20674;-76
2022/05/02 11:43:39;;;;;;;1.60;1.10;;;21.50;90.90;;;;;;5015557;28;20154;-76
2022/05/02 11:46:22;;;;;;;2.83;1.10;;;21.50;91.40;;;;;;5031753;28;20406;-76
2022/05/02 11:48:59;;;;;;;4.38;1.30;;;21.30;91.70;;;;;;5016071;28;20057;-76
2022/05/02 11:51:27;;;;;;;5.43;2.65;;;21.20;91.90;;;;;;5028846;28;20454;-76
2022/05/02 11:53:57;;;;;;;3.22;1.40;;;21.00;92.40;;;;;;5032233;28;20049;-76
2022/05/02 11:56:39;;;;;;;2.10;1.13;;;20.90;92.90;;;;;;5032125;28;20064;-76
2022/05/02 11:59:12;;;;;;;3.28;1.70;;;20.90;93.10;;;;;;5032497;28;20063;-77
2022/05/02 12:01:41;;;;;;;4.75;1.65;;;21.00;93.40;;;;;;5048889;28;20088;-77
2022/05/02 12:04:15;;;;;;;2.15;1.13;;;21.10;93.20;;;;;;5016110;28;20164;-77
2022/05/02 12:06:59;;;;;;;2.22;1.42;;;21.10;92.90;;;;;;5032493;28;20053;-74
2022/05/02 12:09:33;;;;;;;3.22;1.50;;;21.10;93.10;;;;;;5032127;28;20084;-77
2022/05/02 12:12:08;;;;;;;1.98;1.40;;;21.10;93.30;;;;;;5048429;28;20063;-76
2022/05/02 12:14:36;;;;;;;3.13;1.67;;;21.10;93.60;;;;;;5048563;28;20142;-76
2022/05/02 12:17:11;;;;;;;4.53;1.70;;;21.10;93.90;;;;;;5054268;28;20053;-76
2022/05/02 12:19:41;;;;;;;5.10;1.60;;;21.10;94.10;;;;;;5052306;28;20410;-76
2022/05/02 12:22:24;;;;;;;4.07;2.20;;;21.00;94.00;;;;;;5054363;28;20040;-77
2022/05/02 12:24:55;;;;;;;3.10;1.75;;;21.10;94.10;;;;;;5049800;28;20401;-77
2022/05/02 12:27:25;;;;;;;2.05;1.33;;;21.00;94.20;;;;;;5065113;28;20101;-77
2022/05/02 12:29:58;;;;;;;4.30;1.45;;;21.00;94.40;;;;;;5052692;28;20049;-77
2022/05/02 12:32:30;;;;;;;5.20;2.10;;;20.90;94.30;;;;;;5056587;28;20082;-77
2022/05/02 12:35:00;;;;;;;2.83;1.92;;;20.90;94.00;;;;;;5060737;28;20075;-76
2022/05/02 12:37:30;;;;;;;3.47;1.92;;;21.00;94.30;;;;;;5050281;28;20481;-76
2022/05/02 12:40:14;;;;;;;3.20;2.22;;;21.00;94.30;;;;;;5069191;28;20055;-75
2022/05/02 12:42:55;;;;;;;5.28;2.30;;;21.00;93.80;;;;;;5067720;28;20376;-76
2022/05/02 12:45:24;;;;;;;5.15;2.47;;;20.90;93.90;;;;;;5050091;28;20384;-75
2022/05/02 12:48:00;;;;;;;5.65;2.28;;;20.70;94.30;;;;;;5061822;28;20080;-76
2022/05/02 12:50:29;;;;;;;3.47;1.83;;;20.60;94.00;;;;;;5034105;28;20052;-75
2022/05/02 12:53:05;;;;;;;3.60;2.28;;;20.50;94.40;;;;;;5057509;28;20049;-75
2022/05/02 12:55:36;;;;;;;5.38;1.98;;;20.40;94.80;;;;;;5034671;28;20144;-75
2022/05/02 13:00:55;;;;;;;4.47;2.58;;;20.60;93.80;;;;;;5064319;28;20052;-76
2022/05/02 13:03:27;;;;;;;3.60;1.50;;;20.60;93.50;;;;;;5049953;28;20576;-76
2022/05/02 13:05:57;;;;;;;3.35;1.50;;;20.60;92.90;;;;;;5050829;28;20044;-76
2022/05/02 13:08:33;;;;;;;3.60;1.83;;;20.60;92.70;;;;;;5036471;28;20052;-76
2022/05/02 13:11:06;;;;;;;2.83;1.58;;;20.70;92.10;;;;;;5051222;28;20072;-76
2022/05/02 13:13:49;;;;;;;3.03;1.60;;;20.50;91.20;;;;;;5051295;28;20513;-76
2022/05/02 13:16:28;;;;;;;3.53;1.50;;;20.30;91.00;;;;;;5055357;28;20049;-76
2022/05/02 13:19:03;;;;;;;3.50;1.98;;;20.20;91.90;;;;;;5051930;28;20232;-76
2022/05/02 13:21:32;;;;;;;3.13;1.55;;;20.10;92.90;;;;;;5054253;28;20123;-75
2022/05/02 13:24:10;;;;;;;4.78;2.10;;;20.10;92.70;;;;;;5070315;28;20060;-76
2022/05/02 13:26:54;;;;;;;4.57;1.73;;;20.10;91.80;;;;;;5065518;28;20406;-76
2022/05/02 13:29:24;;;;;;;3.70;2.53;;;20.00;91.90;;;;;;5052830;28;20443;-75
2022/05/02 13:32:00;;;;;;;3.60;1.88;;;19.90;91.10;;;;;;5038375;28;20076;-75
2022/05/02 13:34:31;;;;;;;;;;;19.80;90.90;;;;;;5035364;28;20044;-75
2022/05/02 13:37:26;;;;;;;3.63;1.83;;;19.70;91.40;;;;;;5032468;28;19920;-75
2022/05/02 13:40:03;;;;;;;5.60;1.90;;;19.80;91.40;;;;;;5048420;28;20060;-75
2022/05/02 13:42:55;;;;;;;2.13;1.58;;;19.90;91.60;;;;;;5054627;28;20056;-75
2022/05/02 13:45:33;;;;;;;4.68;1.88;;;19.80;91.50;;;;;;5051685;28;20442;-75
2022/05/02 13:48:33;;;;;;;4.07;1.90;;;19.80;92.30;;;;;;5070455;28;20045;-76
2022/05/02 13:51:18;;;;;;;6.13;1.70;;;19.80;92.70;;;;;;5054619;28;20119;-76
2022/05/02 13:53:56;;;;;;;4.18;2.22;;;19.90;93.10;;;;;;5054818;28;20059;-74
2022/05/02 13:56:50;;;;;;;5.13;2.15;;;20.00;92.80;;;;;;5070688;28;20129;-75
2022/05/02 13:59:40;;;;;;;4.15;1.85;;;20.00;92.30;;;;;;5053704;28;20505;-75